MOL Globe — VRIH6 — position and weather

sailwx.info

Track history (hours):
 
Tides and Currents Weather Stations Pressure Air Temp Water Temp Dewpoint Dewpoint Depression Visibility Wind Speed Wind Dir Waves Ship Positions

MOL Globe

Last reported at 2018-Jul-07 19:22 UTC. Time now 2018-Jul-22 16:39 UTC.
Position N 01°33' E 103°00'.
Warning: this ship's position is 14 days out of date.

Length 275 m; draft 11.4 m.

Type: Ship (hazmat cat D). MMSI: 477802700.

Date/timePositionNaut miles runAvg speedWind from/ knotsBaromVisibWave heightAir tempDewpointWater temp
2018-Jul-07 19:22N 01°33' E 103°00'511.5
2018-Jul-07 18:58N 01°30' E 103°04'511.6
2018-Jul-07 18:30N 01°27' E 103°08'611.8
2018-Jul-07 17:59N 01°23' E 103°13'612.4
2018-Jul-07 17:30N 01°20' E 103°18'712.5
2018-Jul-07 16:58N 01°16' E 103°23'612.7
2018-Jul-07 16:30N 01°14' E 103°28'612.5
2018-Jul-07 16:01N 01°12' E 103°35'611.3
2018-Jul-07 15:30N 01°13' E 103°40'612.6
2018-Jul-07 15:00N 01°16' E 103°45'1 1.9
2018-Jul-07 14:30N 01°16' E 103°46'0 0.1
2018-Jul-07 14:00N 01°16' E 103°46'0 0.0
2018-Jul-07 13:27N 01°16' E 103°46'0 0.0
2018-Jul-07 12:59N 01°16' E 103°46'0 0.0
2018-Jul-07 12:28N 01°16' E 103°46'0 0.0
2018-Jul-07 11:58N 01°16' E 103°46'0 0.0
2018-Jul-07 11:30N 01°16' E 103°46'0 0.0
2018-Jul-07 11:00N 01°16' E 103°46'0 0.0
2018-Jul-07 10:30N 01°16' E 103°46'0 0.0
2018-Jul-07 09:57N 01°16' E 103°46'0 0.0
2018-Jul-07 09:30N 01°16' E 103°46'0 0.0
2018-Jul-07 08:58N 01°16' E 103°46'0 0.0
2018-Jul-07 08:25N 01°16' E 103°46'0 0.0
2018-Jul-07 07:58N 01°16' E 103°46'0 0.0
2018-Jul-07 07:30N 01°16' E 103°46'0 0.0
2018-Jul-07 06:59N 01°16' E 103°46'0 0.0
2018-Jul-07 06:28N 01°16' E 103°46'0 0.0
2018-Jul-07 06:00N 01°16' E 103°46'0 0.0
2018-Jul-07 05:30N 01°16' E 103°46'0 0.0
2018-Jul-07 05:00N 01°16' E 103°46'0 0.0
2018-Jul-07 04:29N 01°16' E 103°46'0 0.0
2018-Jul-07 03:59N 01°16' E 103°46'0 0.0
2018-Jul-07 03:26N 01°16' E 103°46'0 0.0
2018-Jul-07 02:55N 01°16' E 103°46'0 0.0
2018-Jul-07 02:28N 01°16' E 103°46'0 0.0
2018-Jul-07 01:59N 01°16' E 103°46'0 0.0
2018-Jul-07 01:28N 01°16' E 103°46'0 0.0
2018-Jul-07 00:57N 01°16' E 103°46'0 0.0
2018-Jul-07 00:28N 01°16' E 103°46'0 0.0
2018-Jul-07 00:00N 01°16' E 103°46'0 0.0
2018-Jul-06 23:30N 01°16' E 103°46'0 0.0
2018-Jul-06 22:59N 01°16' E 103°46'0 0.0
2018-Jul-06 22:30N 01°16' E 103°46'0 0.0
2018-Jul-06 21:57N 01°16' E 103°46'0 0.0
2018-Jul-06 21:28N 01°16' E 103°46'0 0.0
2018-Jul-06 20:58N 01°16' E 103°46'0 0.0
2018-Jul-06 20:27N 01°16' E 103°46'0 0.0
2018-Jul-06 20:00N 01°16' E 103°46'0 0.0
2018-Jul-06 19:29N 01°16' E 103°46'0 0.0
2018-Jul-06 18:58N 01°16' E 103°46'0 0.0
2018-Jul-06 18:27N 01°16' E 103°46'0 0.0
2018-Jul-06 18:00N 01°16' E 103°46'1 3.0
2018-Jul-06 17:30N 01°15' E 103°47'5 9.4
2018-Jul-06 16:59N 01°12' E 103°51'4 7.4
2018-Jul-06 16:30N 01°14' E 103°54'1 1.7
2018-Jul-06 16:00N 01°14' E 103°55'3 5.5
2018-Jul-06 15:30N 01°15' E 103°58'712.5
2018-Jul-06 14:57N 01°16' E 104°05'612.7
2018-Jul-06 14:29N 01°17' E 104°10'713.1
2018-Jul-06 13:58N 01°18' E 104°17'  
2018-Jun-29 07:36N 01°21' E 104°23'212.8
2018-Jun-29 07:28N 01°20' E 104°22'612.2
2018-Jun-29 06:59N 01°16' E 104°17'612.7
2018-Jun-29 06:29N 01°15' E 104°11'612.7
2018-Jun-29 05:59N 01°15' E 104°05'612.6
2018-Jun-29 05:30N 01°14' E 103°59'713.6
2018-Jun-29 05:00N 01°12' E 103°52'5 9.5
2018-Jun-29 04:30N 01°13' E 103°48'4 7.2
2018-Jun-29 04:00N 01°17' E 103°47'0 0.0
2018-Jun-29 03:29N 01°17' E 103°47'0 0.0
2018-Jun-29 02:55N 01°17' E 103°47'0 0.0
2018-Jun-29 02:25N 01°17' E 103°47'0 0.0
2018-Jun-29 01:57N 01°17' E 103°47'0 0.0
2018-Jun-29 01:29N 01°17' E 103°47'0 0.0
2018-Jun-29 00:58N 01°17' E 103°47'0 0.0
2018-Jun-29 00:29N 01°17' E 103°47'0 0.0
2018-Jun-29 00:00N 01°17' E 103°47'0 0.0
2018-Jun-28 23:30N 01°17' E 103°47'0 0.0
2018-Jun-28 22:59N 01°17' E 103°47'0 0.0
2018-Jun-28 22:29N 01°17' E 103°47'0 0.0
2018-Jun-28 21:59N 01°17' E 103°47'0 0.0
2018-Jun-28 21:28N 01°17' E 103°47'0 0.0
2018-Jun-28 20:59N 01°17' E 103°47'0 0.0
2018-Jun-28 20:30N 01°17' E 103°47'0 0.0
2018-Jun-28 19:58N 01°17' E 103°47'0 0.0
2018-Jun-28 19:28N 01°17' E 103°47'0 0.0
2018-Jun-28 18:58N 01°17' E 103°47'0 0.0
2018-Jun-28 18:28N 01°17' E 103°47'0 0.0
2018-Jun-28 17:58N 01°17' E 103°47'0 0.0
2018-Jun-28 17:26N 01°17' E 103°47'0 0.0
2018-Jun-28 16:56N 01°17' E 103°47'0 0.0
2018-Jun-28 16:27N 01°17' E 103°47'0 0.0
2018-Jun-28 15:55N 01°17' E 103°47'0 0.0
2018-Jun-28 15:29N 01°17' E 103°47'0 0.0
2018-Jun-28 14:59N 01°17' E 103°47'0 0.0
2018-Jun-28 14:27N 01°17' E 103°47'0 0.0
2018-Jun-28 13:59N 01°17' E 103°47'0 0.0
2018-Jun-28 13:28N 01°17' E 103°47'0 0.0
2018-Jun-28 13:00N 01°17' E 103°47'0 0.0
2018-Jun-28 12:29N 01°17' E 103°47'0 0.0
2018-Jun-28 11:59N 01°17' E 103°47'0 0.0
2018-Jun-28 11:30N 01°17' E 103°47'0 0.0
2018-Jun-28 11:00N 01°17' E 103°47'0 0.0
2018-Jun-28 10:30N 01°17' E 103°47'0 0.0
2018-Jun-28 09:56N 01°17' E 103°47'0 0.0
2018-Jun-28 09:27N 01°17' E 103°47'0 0.0
2018-Jun-28 09:00N 01°17' E 103°47'1 1.4
2018-Jun-28 08:30N 01°16' E 103°47'2 3.1
2018-Jun-28 08:00N 01°15' E 103°46'2 4.9
2018-Jun-28 07:30N 01°15' E 103°43'4 8.7
2018-Jun-28 06:59N 01°12' E 103°39'4 8.6
2018-Jun-28 06:30N 01°12' E 103°35'4 7.4
2018-Jun-28 06:00N 01°10' E 103°32'2 4.0
2018-Jun-28 05:30N 01°11' E 103°30'1 1.1
2018-Jun-28 05:00N 01°10' E 103°30'1 1.8
2018-Jun-28 04:30N 01°10' E 103°29'1 2.7
2018-Jun-28 03:58N 01°11' E 103°27'4 8.9
2018-Jun-28 03:30N 01°13' E 103°24'510.1
2018-Jun-28 02:59N 01°16' E 103°19'611.7
2018-Jun-28 02:29N 01°20' E 103°15'  
Track history (hours):
 
Tides and Currents Weather Stations Pressure Air Temp Water Temp Dewpoint Dewpoint Depression Visibility Wind Speed Wind Dir Waves Ship Positions

MOL Globe

Last reported at 2018-Jul-07 19:22 UTC. Time now 2018-Jul-22 16:39 UTC.
Position N 01°33' E 103°00'.
Warning: this ship's position is 14 days out of date.

Length 275 m; draft 11.4 m.

Type: Ship (hazmat cat D). MMSI: 477802700.

Date/timePositionNaut miles runAvg speedWind from/ knotsBaromVisibWave heightAir tempDewpointWater temp
2018-Jul-07 19:22N 01°33' E 103°00'511.5
2018-Jul-07 18:58N 01°30' E 103°04'511.6
2018-Jul-07 18:30N 01°27' E 103°08'611.8
2018-Jul-07 17:59N 01°23' E 103°13'612.4
2018-Jul-07 17:30N 01°20' E 103°18'712.5
2018-Jul-07 16:58N 01°16' E 103°23'612.7
2018-Jul-07 16:30N 01°14' E 103°28'612.5
2018-Jul-07 16:01N 01°12' E 103°35'611.3
2018-Jul-07 15:30N 01°13' E 103°40'612.6
2018-Jul-07 15:00N 01°16' E 103°45'1 1.9
2018-Jul-07 14:30N 01°16' E 103°46'0 0.1
2018-Jul-07 14:00N 01°16' E 103°46'0 0.0
2018-Jul-07 13:27N 01°16' E 103°46'0 0.0
2018-Jul-07 12:59N 01°16' E 103°46'0 0.0
2018-Jul-07 12:28N 01°16' E 103°46'0 0.0
2018-Jul-07 11:58N 01°16' E 103°46'0 0.0
2018-Jul-07 11:30N 01°16' E 103°46'0 0.0
2018-Jul-07 11:00N 01°16' E 103°46'0 0.0
2018-Jul-07 10:30N 01°16' E 103°46'0 0.0
2018-Jul-07 09:57N 01°16' E 103°46'0 0.0
2018-Jul-07 09:30N 01°16' E 103°46'0 0.0
2018-Jul-07 08:58N 01°16' E 103°46'0 0.0
2018-Jul-07 08:25N 01°16' E 103°46'0 0.0
2018-Jul-07 07:58N 01°16' E 103°46'0 0.0
2018-Jul-07 07:30N 01°16' E 103°46'0 0.0
2018-Jul-07 06:59N 01°16' E 103°46'0 0.0
2018-Jul-07 06:28N 01°16' E 103°46'0 0.0
2018-Jul-07 06:00N 01°16' E 103°46'0 0.0
2018-Jul-07 05:30N 01°16' E 103°46'0 0.0
2018-Jul-07 05:00N 01°16' E 103°46'0 0.0
2018-Jul-07 04:29N 01°16' E 103°46'0 0.0
2018-Jul-07 03:59N 01°16' E 103°46'0 0.0
2018-Jul-07 03:26N 01°16' E 103°46'0 0.0
2018-Jul-07 02:55N 01°16' E 103°46'0 0.0
2018-Jul-07 02:28N 01°16' E 103°46'0 0.0
2018-Jul-07 01:59N 01°16' E 103°46'0 0.0
2018-Jul-07 01:28N 01°16' E 103°46'0 0.0
2018-Jul-07 00:57N 01°16' E 103°46'0 0.0
2018-Jul-07 00:28N 01°16' E 103°46'0 0.0
2018-Jul-07 00:00N 01°16' E 103°46'0 0.0
2018-Jul-06 23:30N 01°16' E 103°46'0 0.0
2018-Jul-06 22:59N 01°16' E 103°46'0 0.0
2018-Jul-06 22:30N 01°16' E 103°46'0 0.0
2018-Jul-06 21:57N 01°16' E 103°46'0 0.0
2018-Jul-06 21:28N 01°16' E 103°46'0 0.0
2018-Jul-06 20:58N 01°16' E 103°46'0 0.0
2018-Jul-06 20:27N 01°16' E 103°46'0 0.0
2018-Jul-06 20:00N 01°16' E 103°46'0 0.0
2018-Jul-06 19:29N 01°16' E 103°46'0 0.0
2018-Jul-06 18:58N 01°16' E 103°46'0 0.0
2018-Jul-06 18:27N 01°16' E 103°46'0 0.0
2018-Jul-06 18:00N 01°16' E 103°46'1 3.0
2018-Jul-06 17:30N 01°15' E 103°47'5 9.4
2018-Jul-06 16:59N 01°12' E 103°51'4 7.4
2018-Jul-06 16:30N 01°14' E 103°54'1 1.7
2018-Jul-06 16:00N 01°14' E 103°55'3 5.5
2018-Jul-06 15:30N 01°15' E 103°58'712.5
2018-Jul-06 14:57N 01°16' E 104°05'612.7
2018-Jul-06 14:29N 01°17' E 104°10'713.1
2018-Jul-06 13:58N 01°18' E 104°17'  
2018-Jun-29 07:36N 01°21' E 104°23'212.8
2018-Jun-29 07:28N 01°20' E 104°22'612.2
2018-Jun-29 06:59N 01°16' E 104°17'612.7
2018-Jun-29 06:29N 01°15' E 104°11'612.7
2018-Jun-29 05:59N 01°15' E 104°05'612.6
2018-Jun-29 05:30N 01°14' E 103°59'713.6
2018-Jun-29 05:00N 01°12' E 103°52'5 9.5
2018-Jun-29 04:30N 01°13' E 103°48'4 7.2
2018-Jun-29 04:00N 01°17' E 103°47'0 0.0
2018-Jun-29 03:29N 01°17' E 103°47'0 0.0
2018-Jun-29 02:55N 01°17' E 103°47'0 0.0
2018-Jun-29 02:25N 01°17' E 103°47'0 0.0
2018-Jun-29 01:57N 01°17' E 103°47'0 0.0
2018-Jun-29 01:29N 01°17' E 103°47'0 0.0
2018-Jun-29 00:58N 01°17' E 103°47'0 0.0
2018-Jun-29 00:29N 01°17' E 103°47'0 0.0
2018-Jun-29 00:00N 01°17' E 103°47'0 0.0
2018-Jun-28 23:30N 01°17' E 103°47'0 0.0
2018-Jun-28 22:59N 01°17' E 103°47'0 0.0
2018-Jun-28 22:29N 01°17' E 103°47'0 0.0
2018-Jun-28 21:59N 01°17' E 103°47'0 0.0
2018-Jun-28 21:28N 01°17' E 103°47'0 0.0
2018-Jun-28 20:59N 01°17' E 103°47'0 0.0
2018-Jun-28 20:30N 01°17' E 103°47'0 0.0
2018-Jun-28 19:58N 01°17' E 103°47'0 0.0
2018-Jun-28 19:28N 01°17' E 103°47'0 0.0
2018-Jun-28 18:58N 01°17' E 103°47'0 0.0
2018-Jun-28 18:28N 01°17' E 103°47'0 0.0
2018-Jun-28 17:58N 01°17' E 103°47'0 0.0
2018-Jun-28 17:26N 01°17' E 103°47'0 0.0
2018-Jun-28 16:56N 01°17' E 103°47'0 0.0
2018-Jun-28 16:27N 01°17' E 103°47'0 0.0
2018-Jun-28 15:55N 01°17' E 103°47'0 0.0
2018-Jun-28 15:29N 01°17' E 103°47'0 0.0
2018-Jun-28 14:59N 01°17' E 103°47'0 0.0
2018-Jun-28 14:27N 01°17' E 103°47'0 0.0
2018-Jun-28 13:59N 01°17' E 103°47'0 0.0
2018-Jun-28 13:28N 01°17' E 103°47'0 0.0
2018-Jun-28 13:00N 01°17' E 103°47'0 0.0
2018-Jun-28 12:29N 01°17' E 103°47'0 0.0
2018-Jun-28 11:59N 01°17' E 103°47'0 0.0
2018-Jun-28 11:30N 01°17' E 103°47'0 0.0
2018-Jun-28 11:00N 01°17' E 103°47'0 0.0
2018-Jun-28 10:30N 01°17' E 103°47'0 0.0
2018-Jun-28 09:56N 01°17' E 103°47'0 0.0
2018-Jun-28 09:27N 01°17' E 103°47'0 0.0
2018-Jun-28 09:00N 01°17' E 103°47'1 1.4
2018-Jun-28 08:30N 01°16' E 103°47'2 3.1
2018-Jun-28 08:00N 01°15' E 103°46'2 4.9
2018-Jun-28 07:30N 01°15' E 103°43'4 8.7
2018-Jun-28 06:59N 01°12' E 103°39'4 8.6
2018-Jun-28 06:30N 01°12' E 103°35'4 7.4
2018-Jun-28 06:00N 01°10' E 103°32'2 4.0
2018-Jun-28 05:30N 01°11' E 103°30'1 1.1
2018-Jun-28 05:00N 01°10' E 103°30'1 1.8
2018-Jun-28 04:30N 01°10' E 103°29'1 2.7
2018-Jun-28 03:58N 01°11' E 103°27'4 8.9
2018-Jun-28 03:30N 01°13' E 103°24'510.1
2018-Jun-28 02:59N 01°16' E 103°19'611.7
2018-Jun-28 02:29N 01°20' E 103°15'  

Dump ship's entire track history